createdAt,value
2022-10-25T00:00:14.413Z,95.2
2022-10-25T00:01:30.719Z,95.3
2022-10-25T00:02:46.995Z,95.3
2022-10-25T00:04:03.288Z,95.2
2022-10-25T00:05:18.609Z,95.3
2022-10-25T00:06:34.895Z,95.2
2022-10-25T00:07:51.197Z,95.3
2022-10-25T00:09:07.480Z,95.3
2022-10-25T00:10:23.775Z,95.3
2022-10-25T00:11:40.073Z,95.3
2022-10-25T00:12:56.379Z,95.3
2022-10-25T00:14:12.656Z,95.5
2022-10-25T00:15:28.959Z,95.3
2022-10-25T00:16:45.248Z,95.3
2022-10-25T00:18:01.536Z,95.5
2022-10-25T00:20:34.132Z,95.3
2022-10-25T00:21:49.442Z,95.3
2022-10-25T00:23:05.741Z,95.3
2022-10-25T00:24:22.027Z,95.5
2022-10-25T00:25:38.316Z,95.3
2022-10-25T00:26:54.618Z,95.3
2022-10-25T00:28:10.917Z,95.3
2022-10-25T00:29:27.217Z,95.3
2022-10-25T00:30:43.495Z,95.3
2022-10-25T00:31:59.789Z,95.5
2022-10-25T00:33:16.085Z,95.3
2022-10-25T00:35:48.671Z,95.4
2022-10-25T00:37:04.976Z,95.4
2022-10-25T00:38:20.269Z,95.4
2022-10-25T00:39:36.565Z,95.3
2022-10-25T00:40:52.861Z,95.2
2022-10-25T00:42:09.168Z,95.2
2022-10-25T00:43:25.458Z,95.1
2022-10-25T00:44:41.742Z,95.2
2022-10-25T00:45:58.035Z,95.2
2022-10-25T00:47:14.331Z,95
2022-10-25T00:48:30.634Z,95
2022-10-25T00:49:46.913Z,95.1
2022-10-25T00:51:03.220Z,95.1
2022-10-25T00:52:19.507Z,94.9
2022-10-25T00:53:35.811Z,94.9
2022-10-25T00:54:52.103Z,95.1
2022-10-25T00:56:07.403Z,94.9
2022-10-25T00:57:23.713Z,94.8
2022-10-25T00:58:39.992Z,95
2022-10-25T00:59:56.289Z,94.9
2022-10-25T01:01:12.579Z,94.7
2022-10-25T01:02:28.883Z,94.9
2022-10-25T01:03:45.166Z,94.9
2022-10-25T01:05:01.462Z,94.9
2022-10-25T01:06:17.766Z,95
2022-10-25T01:07:34.058Z,94.9
2022-10-25T01:08:50.349Z,95.2
2022-10-25T01:10:06.648Z,94.9
2022-10-25T01:11:22.937Z,95
2022-10-25T01:12:38.241Z,95
2022-10-25T01:13:54.548Z,95
2022-10-25T01:15:10.957Z,95
2022-10-25T01:16:27.248Z,95.1
2022-10-25T01:17:43.545Z,95.1
2022-10-25T01:18:59.834Z,95
2022-10-25T01:20:16.135Z,94.9
2022-10-25T01:21:32.425Z,94.9
2022-10-25T01:22:48.727Z,95.1
2022-10-25T01:24:05.021Z,95.1
2022-10-25T01:25:21.321Z,94.9
2022-10-25T01:26:37.606Z,95
2022-10-25T01:27:53.890Z,94.9
2022-10-25T01:29:10.201Z,94.8
2022-10-25T01:30:26.490Z,94.8
2022-10-25T01:31:41.801Z,94.8
2022-10-25T01:32:58.086Z,95
2022-10-25T01:34:14.377Z,95
2022-10-25T01:36:46.961Z,95.2
2022-10-25T01:38:03.267Z,95.5
2022-10-25T01:39:19.566Z,95.4
2022-10-25T01:40:35.862Z,95.5
2022-10-25T01:41:52.143Z,95.5
2022-10-25T01:43:08.438Z,95.4
2022-10-25T01:44:24.742Z,95.4
2022-10-25T01:45:41.039Z,95.5
2022-10-25T01:46:57.317Z,95.5
2022-10-25T01:48:13.618Z,95.6
2022-10-25T01:49:28.920Z,95.7
2022-10-25T01:50:45.228Z,95.6
2022-10-25T01:52:01.505Z,95.5
2022-10-25T01:53:17.815Z,95.7
2022-10-25T01:54:34.099Z,95.8
2022-10-25T01:55:50.398Z,95.8
2022-10-25T01:57:06.680Z,96
2022-10-25T01:58:22.984Z,96.1
2022-10-25T01:59:39.276Z,96.2
2022-10-25T02:00:55.562Z,96.2
2022-10-25T02:02:11.864Z,96.4
2022-10-25T02:03:28.164Z,96.3
2022-10-25T02:04:44.443Z,96.5
2022-10-25T02:05:59.759Z,96.5
2022-10-25T02:07:16.055Z,96.7
2022-10-25T02:08:32.351Z,96.8
2022-10-25T02:09:48.636Z,96.8
2022-10-25T02:11:04.945Z,97
2022-10-25T02:12:21.231Z,97.1
2022-10-25T02:13:37.520Z,97
2022-10-25T02:14:53.818Z,97.3
2022-10-25T02:17:26.405Z,97.3
2022-10-25T02:18:42.695Z,97.4
2022-10-25T02:19:58.985Z,97.4
2022-10-25T02:21:15.297Z,97.7
2022-10-25T02:22:31.700Z,97.7
2022-10-25T02:23:47.996Z,97.9
2022-10-25T02:25:04.296Z,97.6
2022-10-25T02:26:20.579Z,97.4
2022-10-25T02:27:36.879Z,97.3
2022-10-25T02:28:53.178Z,97.3
2022-10-25T02:30:09.463Z,97.3
2022-10-25T02:31:25.759Z,97.4
2022-10-25T02:32:42.045Z,97.5
2022-10-25T02:33:58.337Z,97.4
2022-10-25T02:35:14.651Z,97.3
2022-10-25T02:36:30.933Z,97.3
2022-10-25T02:37:47.222Z,97.3
2022-10-25T02:39:02.534Z,97.4
2022-10-25T02:40:18.838Z,97.5
2022-10-25T02:41:35.134Z,97.6
2022-10-25T02:42:51.414Z,97.5
2022-10-25T02:44:07.709Z,97.6
2022-10-25T02:46:40.293Z,97.7
2022-10-25T02:47:56.589Z,97.9
2022-10-25T02:49:12.879Z,97.8
2022-10-25T02:50:29.182Z,98
2022-10-25T02:51:45.467Z,98.1
2022-10-25T02:53:01.772Z,98
2022-10-25T02:54:18.067Z,98
2022-10-25T02:55:33.372Z,98.1
2022-10-25T02:56:49.665Z,98.1
2022-10-25T02:58:05.966Z,98.2
2022-10-25T02:59:22.253Z,98.2
2022-10-25T03:00:38.553Z,98
2022-10-25T03:01:54.846Z,98.1
2022-10-25T03:05:43.734Z,97.8
2022-10-25T03:06:59.042Z,97.9
2022-10-25T03:08:15.465Z,98.1
2022-10-25T03:09:31.758Z,98
2022-10-25T03:10:48.038Z,97.9
2022-10-25T03:12:04.335Z,98.3
2022-10-25T03:13:20.623Z,98
2022-10-25T03:15:53.210Z,97.9
2022-10-25T03:17:09.524Z,97.8
2022-10-25T03:18:25.805Z,98.1
2022-10-25T03:19:42.096Z,98.4
2022-10-25T03:20:58.389Z,98.4
2022-10-25T03:22:14.679Z,98.3
2022-10-25T03:23:30.989Z,98.3
2022-10-25T03:24:47.395Z,98.1
2022-10-25T03:26:03.699Z,98.3
2022-10-25T03:27:19.984Z,98.3
2022-10-25T03:28:36.288Z,98.4
2022-10-25T03:29:52.568Z,98.4
2022-10-25T03:31:08.859Z,98.5
2022-10-25T03:32:25.168Z,98.6
2022-10-25T03:33:41.461Z,98.7
2022-10-25T03:34:56.764Z,98.7
2022-10-25T03:36:12.070Z,98.8
2022-10-25T03:37:28.369Z,98.8
2022-10-25T03:38:44.675Z,99
2022-10-25T03:40:00.968Z,99
2022-10-25T03:41:17.246Z,99
2022-10-25T03:42:33.547Z,99.1
2022-10-25T03:43:49.839Z,99.1
2022-10-25T03:45:06.127Z,99.1
2022-10-25T03:46:22.422Z,99.2
2022-10-25T03:47:38.729Z,99.1
2022-10-25T03:50:11.308Z,98.8
2022-10-25T03:51:27.608Z,98.7
2022-10-25T03:52:43.887Z,98.7
2022-10-25T03:53:59.202Z,98.6
2022-10-25T03:55:15.499Z,98.7
2022-10-25T03:56:31.801Z,98.6
2022-10-25T03:57:48.080Z,98.5
2022-10-25T03:59:04.378Z,98.4
2022-10-25T04:00:20.669Z,98.5
2022-10-25T04:01:36.978Z,98.3
2022-10-25T04:02:53.270Z,98.3
2022-10-25T04:04:09.568Z,98.4
2022-10-25T04:05:25.843Z,98.1
2022-10-25T04:06:42.144Z,98
2022-10-25T04:07:58.436Z,97.9
2022-10-25T04:09:14.726Z,97.9
2022-10-25T04:10:30.033Z,97.9
2022-10-25T04:11:46.346Z,97.9
2022-10-25T04:13:02.637Z,97.8
2022-10-25T04:14:18.915Z,97.7
2022-10-25T04:15:35.228Z,97.5
2022-10-25T04:16:51.513Z,97.5
2022-10-25T04:18:07.800Z,97.7
2022-10-25T04:20:40.392Z,97.8
2022-10-25T04:21:56.679Z,97.8
2022-10-25T04:23:12.983Z,97.7
2022-10-25T04:24:29.284Z,97.7
2022-10-25T04:25:45.566Z,97.7
2022-10-25T04:27:00.868Z,97.7
2022-10-25T04:28:17.179Z,98.1
2022-10-25T04:29:33.465Z,97.9
2022-10-25T04:30:49.756Z,97.7
2022-10-25T04:32:06.048Z,97.6
2022-10-25T04:33:22.341Z,97.6
2022-10-25T04:34:38.639Z,97.7
2022-10-25T04:35:54.924Z,97.7
2022-10-25T04:37:11.222Z,98
2022-10-25T04:38:27.529Z,98
2022-10-25T04:39:43.816Z,98
2022-10-25T04:41:00.119Z,98
2022-10-25T04:42:16.401Z,98.4
2022-10-25T04:43:31.703Z,98.4
2022-10-25T04:44:47.998Z,98.3
2022-10-25T04:46:04.310Z,98.2
2022-10-25T04:47:20.599Z,98.2
2022-10-25T04:48:36.889Z,98.2
2022-10-25T04:49:53.178Z,97.9
2022-10-25T04:51:09.486Z,98
2022-10-25T04:52:25.783Z,97.9
2022-10-25T04:53:42.072Z,97.9
2022-10-25T04:54:58.350Z,97.9
2022-10-25T04:56:14.658Z,98
2022-10-25T04:57:30.952Z,98.2
2022-10-25T04:58:47.231Z,97.9
2022-10-25T05:00:02.551Z,97.9
2022-10-25T05:01:18.849Z,97.8
2022-10-25T05:02:35.127Z,98
2022-10-25T05:03:51.438Z,97.8
2022-10-25T05:05:07.726Z,97.8
2022-10-25T05:06:24.014Z,97.9
2022-10-25T05:07:40.314Z,98
2022-10-25T05:08:56.000Z,97.8
2022-10-25T05:10:12.893Z,97.8
2022-10-25T05:11:29.198Z,97.8
2022-10-25T05:12:45.488Z,97.7
2022-10-25T05:14:01.779Z,97.4
2022-10-25T05:15:18.079Z,97.5
2022-10-25T05:16:33.339Z,97.5
2022-10-25T05:17:49.619Z,97.5
2022-10-25T05:19:05.863Z,97.4
2022-10-25T05:20:22.117Z,97.4
2022-10-25T05:21:38.399Z,97.5
2022-10-25T05:22:54.662Z,97.6
2022-10-25T05:24:10.900Z,97.3
2022-10-25T05:25:27.127Z,97.4
2022-10-25T05:26:43.380Z,97.5
2022-10-25T05:27:59.606Z,97.7
2022-10-25T05:29:15.857Z,97.5
2022-10-25T05:30:31.128Z,97.5
2022-10-25T05:31:47.368Z,97.6
2022-10-25T05:33:03.591Z,97.5
2022-10-25T05:34:19.828Z,97.6
2022-10-25T05:35:36.087Z,97.2
2022-10-25T05:36:52.307Z,97.4
2022-10-25T05:38:08.552Z,97.3
2022-10-25T05:39:24.794Z,97
2022-10-25T05:40:41.029Z,97
2022-10-25T05:41:57.282Z,97.1
2022-10-25T05:43:13.513Z,96.9
2022-10-25T05:44:29.757Z,96.8
2022-10-25T05:45:45.999Z,96.8
2022-10-25T05:47:01.247Z,96.7
2022-10-25T05:48:17.482Z,96.7
2022-10-25T05:49:33.725Z,96.8
2022-10-25T05:50:49.969Z,96.7
2022-10-25T05:52:06.211Z,96.8
2022-10-25T05:53:22.458Z,96.8
2022-10-25T05:54:38.693Z,97.2
2022-10-25T05:55:54.934Z,97
2022-10-25T05:57:11.178Z,96.9
2022-10-25T05:58:27.420Z,97
2022-10-25T05:59:43.655Z,96.8
2022-10-25T06:00:59.896Z,96.9
2022-10-25T06:03:32.368Z,96.6
2022-10-25T06:04:47.621Z,96.5
2022-10-25T06:06:03.863Z,96.4
2022-10-25T06:07:20.104Z,96.3
2022-10-25T06:08:36.346Z,96.3
2022-10-25T06:09:52.585Z,96.1
2022-10-25T06:11:08.815Z,96.1
2022-10-25T06:12:25.062Z,96
2022-10-25T06:13:41.296Z,95.9
2022-10-25T06:14:57.547Z,95.8
2022-10-25T06:16:13.776Z,95.8
2022-10-25T06:17:30.016Z,95.8
2022-10-25T06:18:46.256Z,95.7
2022-10-25T06:20:02.493Z,95.6
2022-10-25T06:21:17.747Z,95.7
2022-10-25T06:23:50.245Z,95.6
2022-10-25T06:25:06.482Z,95.6
2022-10-25T06:26:22.710Z,95.6
2022-10-25T06:27:38.963Z,95.5
2022-10-25T06:28:55.186Z,95.5
2022-10-25T06:30:11.445Z,95.6
2022-10-25T06:31:27.671Z,95.6
2022-10-25T06:32:43.922Z,95.5
2022-10-25T06:34:00.162Z,95.5
2022-10-25T06:35:16.386Z,95.6
2022-10-25T06:36:32.626Z,95.5
2022-10-25T06:37:48.869Z,95.5
2022-10-25T06:39:04.128Z,95.5
2022-10-25T06:40:20.380Z,95.2
2022-10-25T06:41:36.616Z,95.1
2022-10-25T06:42:52.847Z,95
2022-10-25T06:44:09.085Z,95.6
2022-10-25T06:45:25.322Z,94.8
2022-10-25T06:46:41.563Z,94.6
2022-10-25T06:49:14.052Z,94.1
2022-10-25T06:51:46.522Z,94
2022-10-25T06:53:02.764Z,93.7
2022-10-25T06:54:19.017Z,93.9
2022-10-25T06:55:34.274Z,93.8
2022-10-25T06:56:50.510Z,93.7
2022-10-25T06:58:06.735Z,93.8
2022-10-25T06:59:22.988Z,93.8
2022-10-25T07:00:39.220Z,93.5
2022-10-25T07:01:55.473Z,93.4
2022-10-25T07:03:11.695Z,92.7
2022-10-25T07:04:27.942Z,92.7
2022-10-25T07:05:44.176Z,92.3
2022-10-25T07:07:00.423Z,92.2
2022-10-25T07:08:16.662Z,92.4
2022-10-25T07:09:32.900Z,92.1
2022-10-25T07:10:49.138Z,91.4
2022-10-25T07:12:04.395Z,92
2022-10-25T07:13:20.641Z,91
2022-10-25T07:14:36.872Z,91
2022-10-25T07:15:53.121Z,90.6
2022-10-25T07:17:09.350Z,90
2022-10-25T07:18:25.584Z,90.1
2022-10-25T07:19:41.843Z,90.3
2022-10-25T07:20:58.080Z,90
2022-10-25T07:22:14.310Z,89.6
2022-10-25T07:23:30.558Z,89.8
2022-10-25T07:24:46.786Z,89.8
2022-10-25T07:26:03.034Z,88.7
2022-10-25T07:27:19.274Z,88.7
2022-10-25T07:28:34.527Z,88.9
2022-10-25T07:29:50.765Z,88.7
2022-10-25T07:31:07.017Z,88.7
2022-10-25T07:32:23.247Z,88.6
2022-10-25T07:33:39.492Z,88.2
2022-10-25T07:34:55.722Z,95.9
2022-10-25T07:36:11.967Z,100
2022-10-25T07:37:28.198Z,98.4
2022-10-25T07:38:44.442Z,98.5
2022-10-25T07:40:00.689Z,89.2
2022-10-25T07:41:16.935Z,85.7
2022-10-25T07:42:33.160Z,84.8
2022-10-25T07:43:49.415Z,84.5
2022-10-25T07:45:04.660Z,84.2
2022-10-25T07:46:20.895Z,84.3
2022-10-25T07:47:37.140Z,85.3
2022-10-25T07:48:53.378Z,85.5
2022-10-25T07:50:09.615Z,85.5
2022-10-25T07:51:25.861Z,85.4
2022-10-25T07:52:42.094Z,86.4
2022-10-25T07:53:58.332Z,86.4
2022-10-25T07:55:14.575Z,85.7
2022-10-25T07:56:30.814Z,85.3
2022-10-25T07:57:47.072Z,86.3
2022-10-25T07:59:03.303Z,85.9
2022-10-25T08:00:19.544Z,85.9
2022-10-25T08:01:34.794Z,85.9
2022-10-25T08:02:51.043Z,85.2
2022-10-25T08:04:07.281Z,85.2
2022-10-25T08:05:23.516Z,84.7
2022-10-25T08:06:39.765Z,84.6
2022-10-25T08:07:55.994Z,84.3
2022-10-25T08:09:12.231Z,84.3
2022-10-25T08:10:28.478Z,85
2022-10-25T08:11:44.723Z,84.4
2022-10-25T08:13:00.959Z,84.3
2022-10-25T08:14:17.188Z,85
2022-10-25T08:15:33.438Z,84.8
2022-10-25T08:16:49.669Z,85.2
2022-10-25T08:18:04.924Z,84.8
2022-10-25T08:19:21.171Z,84.9
2022-10-25T08:20:37.404Z,85.7
2022-10-25T08:21:53.654Z,85.1
2022-10-25T08:23:09.889Z,84.9
2022-10-25T08:24:26.122Z,84.7
2022-10-25T08:25:42.361Z,84.1
2022-10-25T08:26:58.606Z,84
2022-10-25T08:29:31.082Z,84.2
2022-10-25T08:30:47.338Z,84.4
2022-10-25T08:32:03.580Z,83.5
2022-10-25T08:33:19.818Z,84.1
2022-10-25T08:34:36.047Z,83.5
2022-10-25T08:35:51.314Z,83.8
2022-10-25T08:37:07.551Z,84
2022-10-25T08:38:23.780Z,83.3
2022-10-25T08:39:40.036Z,83
2022-10-25T08:40:56.262Z,83
2022-10-25T08:42:12.497Z,83.7
2022-10-25T08:43:28.734Z,83.5
2022-10-25T08:44:44.974Z,83.1
2022-10-25T08:46:01.224Z,82.9
2022-10-25T08:47:17.466Z,83.3
2022-10-25T08:48:33.694Z,83.7
2022-10-25T08:49:49.939Z,83
2022-10-25T08:51:06.187Z,83.1
2022-10-25T08:52:21.442Z,83.3
2022-10-25T08:53:37.683Z,83.1
2022-10-25T08:54:53.926Z,83.5
2022-10-25T08:56:10.168Z,83.2
2022-10-25T08:58:42.633Z,83
2022-10-25T08:59:58.884Z,83.5
2022-10-25T09:01:15.119Z,82
2022-10-25T09:02:31.366Z,81.8
2022-10-25T09:03:47.586Z,81.8
2022-10-25T09:05:03.835Z,82
2022-10-25T09:06:20.084Z,81.8
2022-10-25T09:07:36.323Z,81
2022-10-25T09:08:51.568Z,80.5
2022-10-25T09:10:07.800Z,80.6
2022-10-25T09:11:24.051Z,80.6
2022-10-25T09:12:40.299Z,80.2
2022-10-25T09:13:56.525Z,79.3
2022-10-25T09:15:12.775Z,79.7
2022-10-25T09:16:29.009Z,79.2
2022-10-25T09:17:45.256Z,77.5
2022-10-25T09:19:01.497Z,78.3
2022-10-25T09:20:17.722Z,78.4
2022-10-25T09:21:33.966Z,78.8
2022-10-25T09:22:50.205Z,78.3
2022-10-25T09:24:06.445Z,77.7
2022-10-25T09:25:21.709Z,77.8
2022-10-25T09:26:37.952Z,79
2022-10-25T09:27:54.184Z,79.3
2022-10-25T09:29:10.418Z,79.2
2022-10-25T09:30:26.659Z,78.7
2022-10-25T09:31:42.899Z,77
2022-10-25T09:32:59.134Z,78
2022-10-25T09:34:15.388Z,77.5
2022-10-25T09:35:31.616Z,77.1
2022-10-25T09:36:47.854Z,77.1
2022-10-25T09:38:04.108Z,77.1
2022-10-25T09:39:20.348Z,77.9
2022-10-25T09:40:36.573Z,77.8
2022-10-25T09:41:51.832Z,78.7
2022-10-25T09:43:08.073Z,78.6
2022-10-25T09:44:24.311Z,78.5
2022-10-25T09:45:39.580Z,78.6
2022-10-25T09:46:55.821Z,78.2
2022-10-25T09:48:12.047Z,78.2
2022-10-25T09:49:28.296Z,77.5
2022-10-25T09:52:00.776Z,77.9
2022-10-25T09:53:17.008Z,78.7
2022-10-25T09:54:33.257Z,78.1
2022-10-25T09:55:49.487Z,78.5
2022-10-25T09:57:05.727Z,79.5
2022-10-25T09:58:21.980Z,78.4
2022-10-25T09:59:38.205Z,78.6
2022-10-25T10:00:54.450Z,78.6
2022-10-25T10:02:09.713Z,78.4
2022-10-25T10:03:25.956Z,78.5
2022-10-25T10:04:42.185Z,77.6
2022-10-25T10:05:58.428Z,78.3
2022-10-25T10:07:14.674Z,78.3
2022-10-25T10:08:30.915Z,78.8
2022-10-25T10:09:47.139Z,78.9
2022-10-25T10:11:03.388Z,78.2
2022-10-25T10:12:19.616Z,77.9
2022-10-25T10:13:35.865Z,78.2
2022-10-25T10:14:52.100Z,77.9
2022-10-25T10:16:08.336Z,78
2022-10-25T10:17:24.593Z,77.3
2022-10-25T10:18:39.831Z,77.5
2022-10-25T10:19:56.085Z,78.3
2022-10-25T10:21:12.328Z,78.7
2022-10-25T10:22:28.556Z,77.8
2022-10-25T10:25:01.046Z,78.1
2022-10-25T10:26:17.270Z,78.2
2022-10-25T10:27:33.524Z,77.3
2022-10-25T10:31:22.233Z,77.5
2022-10-25T10:32:37.493Z,77.9
2022-10-25T10:33:52.757Z,78.5
2022-10-25T10:35:09.005Z,78.7
2022-10-25T10:36:25.241Z,78.4
2022-10-25T10:37:41.483Z,80
2022-10-25T10:38:57.706Z,79.7
2022-10-25T10:40:13.957Z,79.8
2022-10-25T10:41:30.195Z,78.2
2022-10-25T10:42:46.429Z,78.8
2022-10-25T10:44:02.666Z,79.5
2022-10-25T10:45:18.903Z,79.3
2022-10-25T10:46:34.166Z,78.7
2022-10-25T10:47:49.424Z,78.6
2022-10-25T10:49:05.665Z,78.2
2022-10-25T10:50:21.912Z,78.1
2022-10-25T10:51:38.142Z,77.7
2022-10-25T10:52:54.378Z,78.1
2022-10-25T10:54:10.623Z,77.9
2022-10-25T10:55:26.875Z,77
2022-10-25T10:56:43.114Z,77.7
2022-10-25T10:57:59.337Z,76.8
2022-10-25T10:59:15.567Z,76.6
2022-10-25T11:00:31.807Z,77.5
2022-10-25T11:01:48.053Z,79.1
2022-10-25T11:03:04.282Z,78.4
2022-10-25T11:04:19.549Z,79.6
2022-10-25T11:05:35.779Z,79.6
2022-10-25T11:08:08.271Z,79.7
2022-10-25T11:09:24.494Z,80.1
2022-10-25T11:10:40.742Z,80.8
2022-10-25T11:11:56.979Z,80.5
2022-10-25T11:14:29.470Z,79.2
2022-10-25T11:15:45.699Z,80.5
2022-10-25T11:17:01.943Z,80.8
2022-10-25T11:18:18.190Z,80
2022-10-25T11:19:34.417Z,79.8
2022-10-25T11:20:49.675Z,80
2022-10-25T11:22:05.924Z,79.4
2022-10-25T11:23:22.152Z,77.5
2022-10-25T11:24:38.405Z,78.1
2022-10-25T11:25:54.638Z,78.2
2022-10-25T11:27:10.879Z,76.4
2022-10-25T11:28:27.120Z,76.2
2022-10-25T11:29:43.354Z,77.2
2022-10-25T11:30:59.586Z,77
2022-10-25T11:32:15.839Z,76.2
2022-10-25T11:33:32.074Z,76.3
2022-10-25T11:34:48.310Z,76.4
2022-10-25T11:36:04.557Z,76.2
2022-10-25T11:37:19.811Z,75.3
2022-10-25T11:38:36.044Z,75.7
2022-10-25T11:39:52.298Z,77.2
2022-10-25T11:41:08.518Z,76.2
2022-10-25T11:42:24.772Z,76.2
2022-10-25T11:43:40.998Z,76
2022-10-25T11:44:57.252Z,76.5
2022-10-25T11:46:13.491Z,75.7
2022-10-25T11:47:29.734Z,75.4
2022-10-25T11:48:45.973Z,75.6
2022-10-25T11:50:02.210Z,75.7
2022-10-25T11:51:18.451Z,75.2
2022-10-25T11:53:50.926Z,75.8
2022-10-25T11:55:06.176Z,75.7
2022-10-25T11:56:22.425Z,75.8
2022-10-25T11:57:38.664Z,75.5
2022-10-25T11:58:54.911Z,75.4
2022-10-25T12:00:11.135Z,74
2022-10-25T12:01:27.375Z,74
2022-10-25T12:02:43.620Z,74.8
2022-10-25T12:03:59.855Z,74.5
2022-10-25T12:05:16.098Z,73.4
2022-10-25T12:06:32.341Z,74.3
2022-10-25T12:07:48.579Z,74.1
2022-10-25T12:09:04.823Z,73.5
2022-10-25T12:10:21.047Z,72.8
2022-10-25T12:11:36.306Z,73.6
2022-10-25T12:12:52.545Z,72
2022-10-25T12:14:08.798Z,72.3
2022-10-25T12:15:25.040Z,72.3
2022-10-25T12:16:41.282Z,73.1
2022-10-25T12:17:57.518Z,72.6
2022-10-25T12:19:13.747Z,72.7
2022-10-25T12:20:29.984Z,72.9
2022-10-25T12:21:46.235Z,72.8
2022-10-25T12:23:02.479Z,72.7
2022-10-25T12:24:18.707Z,72
2022-10-25T12:25:34.946Z,71.8
2022-10-25T12:26:51.188Z,71.5
2022-10-25T12:28:06.444Z,71.8
2022-10-25T12:29:22.684Z,71.4
2022-10-25T12:30:38.930Z,71
2022-10-25T12:31:55.166Z,70.9
2022-10-25T12:33:11.404Z,70.5
2022-10-25T12:34:27.646Z,70.6
2022-10-25T12:35:43.889Z,70.9
2022-10-25T12:37:00.127Z,70.7
2022-10-25T12:39:32.592Z,71.9
2022-10-25T12:40:48.837Z,71.5
2022-10-25T12:42:05.075Z,71
2022-10-25T12:43:21.323Z,71.4
2022-10-25T12:44:36.571Z,72.7
2022-10-25T12:45:52.818Z,73.1
2022-10-25T12:47:09.057Z,73.2
2022-10-25T12:48:25.305Z,70.7
2022-10-25T12:49:41.534Z,72.6
2022-10-25T12:50:57.774Z,72.2
2022-10-25T12:52:14.019Z,71.2
2022-10-25T12:54:46.498Z,71.5
2022-10-25T12:56:02.734Z,72.2
2022-10-25T12:57:18.972Z,72.4
2022-10-25T12:58:35.221Z,71
2022-10-25T12:59:51.459Z,71.7
2022-10-25T13:01:06.700Z,71.5
2022-10-25T13:02:22.949Z,71.6
2022-10-25T13:03:39.185Z,71.4
2022-10-25T13:04:55.429Z,71.4
2022-10-25T13:06:11.664Z,71.2
2022-10-25T13:07:27.913Z,71.2
2022-10-25T13:08:44.143Z,71.5
2022-10-25T13:10:00.392Z,71.2
2022-10-25T13:11:16.622Z,71.4
2022-10-25T13:12:32.862Z,71.2
2022-10-25T13:13:49.099Z,70.8
2022-10-25T13:15:05.348Z,71
2022-10-25T13:16:21.593Z,70.3
2022-10-25T13:17:36.848Z,70.7
2022-10-25T13:18:53.085Z,71.1
2022-10-25T13:20:09.315Z,71.6
2022-10-25T13:21:25.566Z,71.7
2022-10-25T13:22:41.801Z,71.7
2022-10-25T13:23:58.046Z,70.7
2022-10-25T13:25:14.277Z,71.6
2022-10-25T13:26:30.527Z,72
2022-10-25T13:27:46.772Z,71.6
2022-10-25T13:29:03.004Z,71
2022-10-25T13:30:19.239Z,71.5
2022-10-25T13:31:35.488Z,71.1
2022-10-25T13:34:07.958Z,71
2022-10-25T13:35:23.214Z,71.5
2022-10-25T13:36:39.463Z,71.1
2022-10-25T13:37:55.699Z,71.2
2022-10-25T13:40:28.165Z,71.6
2022-10-25T13:41:44.426Z,71.9
2022-10-25T13:44:16.900Z,71.9
2022-10-25T13:45:32.149Z,71.6
2022-10-25T13:48:04.632Z,71.2
2022-10-25T13:49:19.886Z,70.9
2022-10-25T13:50:36.129Z,71.2
2022-10-25T13:51:52.366Z,71.8
2022-10-25T13:53:08.602Z,71.7
2022-10-25T13:54:24.852Z,71.6
2022-10-25T13:55:41.093Z,72.3
2022-10-25T13:56:57.327Z,72.1
2022-10-25T13:58:13.561Z,72.4
2022-10-25T13:59:29.818Z,73.2
2022-10-25T14:00:45.088Z,73.4
2022-10-25T14:02:01.323Z,72.5
2022-10-25T14:03:17.566Z,72.9
2022-10-25T14:04:32.807Z,72.2
2022-10-25T14:05:49.066Z,73
2022-10-25T14:07:05.295Z,73
2022-10-25T14:08:21.528Z,72.7
2022-10-25T14:09:37.777Z,73.2
2022-10-25T14:10:54.019Z,73.6
2022-10-25T14:12:10.261Z,73.6
2022-10-25T14:13:26.485Z,73.7
2022-10-25T14:14:42.725Z,73.9
2022-10-25T14:15:58.983Z,74
2022-10-25T14:17:15.216Z,74.1
2022-10-25T14:18:31.443Z,74.2
2022-10-25T14:19:47.692Z,75.1
2022-10-25T14:21:02.955Z,75
2022-10-25T14:22:19.198Z,74.9
2022-10-25T14:23:35.421Z,75.3
2022-10-25T14:24:51.672Z,74.5
2022-10-25T14:26:07.916Z,75.8
2022-10-25T14:28:40.378Z,75.2
2022-10-25T14:29:56.629Z,75.3
2022-10-25T14:31:12.862Z,75.3
2022-10-25T14:33:45.343Z,75.5
2022-10-25T14:35:01.592Z,75.7
2022-10-25T14:36:17.831Z,76
2022-10-25T14:37:33.087Z,76.1
2022-10-25T14:38:49.327Z,76.4
2022-10-25T14:41:21.799Z,76
2022-10-25T14:42:38.049Z,74.8
2022-10-25T14:43:53.309Z,75.1
2022-10-25T14:45:08.560Z,75.2
2022-10-25T14:46:24.802Z,74.8
2022-10-25T14:47:41.042Z,74.6
2022-10-25T14:48:57.269Z,75.5
2022-10-25T14:51:29.756Z,75.2
2022-10-25T14:52:45.997Z,76.2
2022-10-25T14:54:02.236Z,75.8
2022-10-25T14:55:18.474Z,76.4
2022-10-25T14:56:34.706Z,75.3
2022-10-25T14:57:50.947Z,75.6
2022-10-25T14:59:07.194Z,75.4
2022-10-25T15:00:23.445Z,75.8
2022-10-25T15:01:38.699Z,75
2022-10-25T15:02:54.941Z,75
2022-10-25T15:04:11.176Z,75.1
2022-10-25T15:05:27.417Z,75.1
2022-10-25T15:06:43.660Z,75.8
2022-10-25T15:07:59.895Z,76
2022-10-25T15:09:16.124Z,75.4
2022-10-25T15:11:48.616Z,75
2022-10-25T15:13:04.859Z,75.2
2022-10-25T15:14:21.087Z,75
2022-10-25T15:15:37.334Z,75.4
2022-10-25T15:16:53.560Z,75.6
2022-10-25T15:18:08.822Z,75.3
2022-10-25T15:19:24.093Z,74.7
2022-10-25T15:20:40.337Z,74.9
2022-10-25T15:21:56.556Z,75
2022-10-25T15:23:12.802Z,75.3
2022-10-25T15:24:29.040Z,75.4
2022-10-25T15:27:01.522Z,76.5
2022-10-25T15:28:17.755Z,75.4
2022-10-25T15:29:34.003Z,75.5
2022-10-25T15:30:50.247Z,75.6
2022-10-25T15:32:06.476Z,75.7
2022-10-25T15:33:22.730Z,75.9
2022-10-25T15:34:38.968Z,75.9
2022-10-25T15:35:54.222Z,76
2022-10-25T15:37:10.463Z,76.5
2022-10-25T15:38:26.701Z,76.8
2022-10-25T15:39:42.949Z,77
2022-10-25T15:40:59.189Z,76.8
2022-10-25T15:42:15.422Z,77.3
2022-10-25T15:43:31.656Z,77.2
2022-10-25T15:44:47.906Z,77
2022-10-25T15:46:04.137Z,77.6
2022-10-25T15:47:20.375Z,77.6
2022-10-25T15:48:36.623Z,78.3
2022-10-25T15:49:52.860Z,77.9
2022-10-25T15:51:09.104Z,77.9
2022-10-25T15:52:24.346Z,78.1
2022-10-25T15:53:40.588Z,78.5
2022-10-25T15:54:56.836Z,78.9
2022-10-25T15:57:29.314Z,78.9
2022-10-25T15:58:45.551Z,78.8
2022-10-25T16:00:01.797Z,79.1
2022-10-25T16:01:18.025Z,79.1
2022-10-25T16:02:34.270Z,79.3
2022-10-25T16:03:50.508Z,79.5
2022-10-25T16:05:06.744Z,79.6
2022-10-25T16:06:22.985Z,79.9
2022-10-25T16:07:39.235Z,80.1
2022-10-25T16:08:55.477Z,80.3
2022-10-25T16:10:10.732Z,80.3
2022-10-25T16:11:26.975Z,80.7
2022-10-25T16:12:43.215Z,80.6
2022-10-25T16:13:59.450Z,80.7
2022-10-25T16:15:15.683Z,81.1
2022-10-25T16:16:31.931Z,81.2
2022-10-25T16:17:48.173Z,81.2
2022-10-25T16:19:04.406Z,81.4
2022-10-25T16:20:20.649Z,81.8
2022-10-25T16:21:36.891Z,82
2022-10-25T16:22:53.134Z,81.9
2022-10-25T16:24:09.369Z,81.9
2022-10-25T16:25:25.608Z,82.2
2022-10-25T16:26:40.867Z,82.3
2022-10-25T16:27:57.109Z,82.4
2022-10-25T16:29:13.342Z,82.5
2022-10-25T16:30:29.628Z,82.6
2022-10-25T16:31:45.939Z,82.7
2022-10-25T16:33:02.229Z,82.9
2022-10-25T16:34:18.511Z,82.8
2022-10-25T16:35:34.806Z,82.8
2022-10-25T16:36:51.113Z,83.2
2022-10-25T16:38:07.406Z,83.2
2022-10-25T16:39:23.687Z,83.2
2022-10-25T16:40:39.980Z,83.4
2022-10-25T16:41:56.284Z,83.4
2022-10-25T16:43:11.584Z,83.5
2022-10-25T16:44:27.892Z,83.6
2022-10-25T16:45:44.178Z,83.8
2022-10-25T16:47:00.477Z,83.6
2022-10-25T16:48:16.755Z,83.8
2022-10-25T16:49:33.059Z,84
2022-10-25T16:50:49.351Z,84.2
2022-10-25T16:52:05.652Z,84.3
2022-10-25T16:53:21.939Z,84.5
2022-10-25T16:54:38.231Z,84.6
2022-10-25T16:55:54.526Z,85
2022-10-25T16:57:10.817Z,85.2
2022-10-25T16:58:27.106Z,85.3
2022-10-25T16:59:43.418Z,85.5
2022-10-25T17:00:58.714Z,85.8
2022-10-25T17:02:15.009Z,85.8
2022-10-25T17:03:31.311Z,85.8
2022-10-25T17:04:47.604Z,86
2022-10-25T17:06:03.887Z,86.1
2022-10-25T17:07:20.197Z,86.1
2022-10-25T17:08:36.472Z,86.2
2022-10-25T17:09:52.772Z,86.3
2022-10-25T17:11:09.068Z,86.4
2022-10-25T17:12:25.357Z,86.5
2022-10-25T17:13:41.649Z,86.5
2022-10-25T17:14:57.954Z,86.7
2022-10-25T17:16:14.253Z,87
2022-10-25T17:17:29.544Z,87.3
2022-10-25T17:18:45.839Z,87.2
2022-10-25T17:20:02.138Z,87.3
2022-10-25T17:21:18.437Z,87.3
2022-10-25T17:22:34.737Z,87.4
2022-10-25T17:23:51.018Z,87.3
2022-10-25T17:25:07.309Z,87.6
2022-10-25T17:26:23.603Z,87.7
2022-10-25T17:27:39.913Z,87.8
2022-10-25T17:28:56.191Z,88
2022-10-25T17:31:28.794Z,88.2
2022-10-25T17:32:45.083Z,88.2
2022-10-25T17:34:00.393Z,88.1
2022-10-25T17:35:16.688Z,88.5
2022-10-25T17:36:32.977Z,88.6
2022-10-25T17:37:49.273Z,88.9
2022-10-25T17:39:05.556Z,89.2
2022-10-25T17:41:38.151Z,89.5
2022-10-25T17:42:54.436Z,89.5
2022-10-25T17:44:10.747Z,89.5
2022-10-25T17:45:27.038Z,89.3
2022-10-25T17:46:43.332Z,89.5
2022-10-25T17:47:59.616Z,89.9
2022-10-25T17:49:15.920Z,90.1
2022-10-25T17:50:32.211Z,90.4